Time;durP1;ratioP1;P1;durP2;ratioP2;P2;SDS_P1;SDS_P2;PMS_P1;PMS_P2;Temp;Humidity;BMP_temperature;BMP_pressure;BME280_temperature;BME280_humidity;BME280_pressure;Samples;Min_cycle;Max_cycle;Signal;HPM_P1;HPM_P2
2021/09/03 00:01:24;;;;;;;2.30;1.40;;;;;;;9.63;69.50;99634.52;115724;1202;22978;-66
2021/09/03 00:03:52;;;;;;;8.20;1.20;;;;;;;9.63;69.49;99636.14;115615;1198;138586;-67
2021/09/03 00:06:20;;;;;;;2.50;1.00;;;;;;;9.63;69.54;99638.27;115697;1205;22360;-67
2021/09/03 00:09:08;;;;;;;2.80;1.40;;;;;;;9.63;69.54;99634.64;115627;1199;138705;-66
2021/09/03 00:11:38;;;;;;;2.40;1.40;;;;;;;9.63;69.64;99632.44;115735;1205;22398;-66
2021/09/03 00:14:05;;;;;;;5.10;1.40;;;;;;;9.62;69.72;99630.80;115739;1205;22361;-66
2021/09/03 00:16:37;;;;;;;2.00;1.30;;;;;;;9.59;69.73;99635.31;115606;1205;138399;-66
2021/09/03 00:19:05;;;;;;;1.60;1.10;;;;;;;9.54;69.88;99630.77;115663;1204;22421;-66
2021/09/03 00:21:35;;;;;;;1.80;1.20;;;;;;;9.51;70.03;99627.16;115615;1201;138518;-66
2021/09/03 00:24:03;;;;;;;2.30;1.30;;;;;;;9.47;69.93;99628.34;115718;1205;22304;-66
2021/09/03 00:26:31;;;;;;;4.10;1.30;;;;;;;9.44;70.06;99632.97;115753;1205;22242;-66
2021/09/03 00:28:59;;;;;;;6.40;1.40;;;;;;;9.43;70.18;99638.98;115631;1198;137349;-66
2021/09/03 00:31:28;;;;;;;6.00;1.90;;;;;;;9.40;70.44;99637.02;115743;1202;22344;-66
2021/09/03 00:33:56;;;;;;;2.20;1.50;;;;;;;9.37;70.47;99634.55;115596;1208;138785;-66
2021/09/03 00:36:24;;;;;;;3.00;1.10;;;;;;;9.36;70.74;99638.06;115789;1202;22278;-66
2021/09/03 00:38:52;;;;;;;2.80;1.10;;;;;;;9.34;70.72;99633.20;115561;1201;139343;-66
2021/09/03 00:41:20;;;;;;;4.40;2.20;;;;;;;9.34;70.77;99635.42;115718;1205;22373;-64
2021/09/03 00:43:48;;;;;;;2.80;1.50;;;;;;;9.33;70.84;99635.12;115742;1205;22420;-64
2021/09/03 00:46:16;;;;;;;7.20;2.00;;;;;;;9.32;70.96;99629.29;115621;1199;137656;-64
2021/09/03 00:48:45;;;;;;;3.00;1.70;;;;;;;9.27;70.81;99629.73;115726;1202;22300;-64
2021/09/03 00:51:13;;;;;;;2.60;1.60;;;;;;;9.20;71.14;99630.41;115671;1201;137513;-64
2021/09/03 00:53:42;;;;;;;3.40;1.40;;;;;;;9.16;71.19;99631.33;115732;1202;22198;-64
2021/09/03 00:56:11;;;;;;;1.80;1.30;;;;;;;9.14;71.37;99631.55;115696;1205;22318;-64
2021/09/03 00:58:39;;;;;;;3.70;1.30;;;;;;;9.13;71.47;99633.54;115469;1202;138648;-64
2021/09/03 01:01:07;;;;;;;2.30;1.40;;;;;;;9.12;71.50;99634.98;115679;1205;22903;-64
2021/09/03 01:03:35;;;;;;;2.60;1.20;;;;;;;9.09;71.56;99634.56;115621;1201;138383;-64
2021/09/03 01:06:05;;;;;;;2.90;1.60;;;;;;;9.05;71.68;99632.20;115618;1205;24339;-64
2021/09/03 01:08:35;;;;;;;5.00;1.40;;;;;;;9.03;71.71;99633.58;115744;1203;23350;-64
2021/09/03 01:11:07;;;;;;;4.40;1.40;;;;;;;9.00;71.74;99635.98;115518;1201;137765;-64
2021/09/03 01:13:42;;;;;;;2.90;1.40;;;;;;;8.98;71.93;99637.16;115643;1205;22377;-64
2021/09/03 01:16:13;;;;;;;4.60;1.50;;;;;;;8.95;71.96;99635.06;115618;1198;137586;-64
2021/09/03 01:18:44;;;;;;;3.10;1.10;;;;;;;8.93;72.12;99637.60;115736;1206;23391;-64
2021/09/03 01:21:12;;;;;;;3.10;1.30;;;;;;;8.92;72.18;99638.66;115631;1198;137624;-64
2021/09/03 01:23:42;;;;;;;5.30;1.30;;;;;;;8.89;72.17;99634.58;115738;1204;22177;-64
2021/09/03 01:26:11;;;;;;;4.20;1.30;;;;;;;8.84;72.18;99636.55;115681;1204;24227;-64
2021/09/03 01:28:39;;;;;;;3.80;1.50;;;;;;;8.80;72.42;99640.45;115544;1199;138856;-64
2021/09/03 01:31:07;;;;;;;2.60;1.50;;;;;;;8.79;72.66;99635.89;115800;1206;22377;-64
2021/09/03 01:33:35;;;;;;;3.60;1.40;;;;;;;8.77;72.48;99636.02;115624;1202;137976;-64
2021/09/03 01:36:03;;;;;;;3.80;1.60;;;;;;;8.76;72.58;99633.59;115711;1209;22327;-64
2021/09/03 01:38:31;;;;;;;3.20;1.20;;;;;;;8.74;72.76;99634.63;115690;1210;23493;-64
2021/09/03 01:40:59;;;;;;;3.40;1.80;;;;;;;8.71;72.87;99629.63;112070;1202;137937;-64
2021/09/03 01:43:27;;;;;;;2.10;1.40;;;;;;;8.68;72.88;99629.95;111297;1205;23778;-63
2021/09/03 01:45:55;;;;;;;2.30;1.20;;;;;;;8.64;72.81;99625.11;111285;1201;139474;-63
2021/09/03 01:48:23;;;;;;;3.90;1.70;;;;;;;8.61;73.12;99629.11;111394;1203;23755;-63
2021/09/03 01:50:51;;;;;;;2.60;1.40;;;;;;;8.55;72.95;99627.30;111247;1198;138480;-63
2021/09/03 01:53:19;;;;;;;4.10;1.90;;;;;;;8.48;73.14;99630.77;111490;1203;25327;-63
2021/09/03 01:55:47;;;;;;;3.70;1.80;;;;;;;8.40;73.49;99628.16;115558;1203;23148;-63
2021/09/03 01:58:15;;;;;;;2.70;1.50;;;;;;;8.34;73.73;99627.71;115558;1198;138970;-64
2021/09/03 02:00:43;;;;;;;4.00;1.50;;;;;;;8.29;73.73;99627.58;115748;1210;22369;-64
2021/09/03 02:03:13;;;;;;;2.40;1.20;;;;;;;8.27;73.83;99627.96;115560;1200;137591;-64
2021/09/03 02:05:42;;;;;;;5.40;1.60;;;;;;;8.24;74.09;99630.14;115710;1205;22412;-64
2021/09/03 02:08:10;;;;;;;2.40;1.20;;;;;;;8.26;74.38;99628.43;115744;1202;22373;-64
2021/09/03 02:10:38;;;;;;;2.70;1.60;;;;;;;8.27;74.28;99626.56;115640;1199;139983;-64
2021/09/03 02:13:06;;;;;;;7.10;1.60;;;;;;;8.29;74.29;99625.62;115643;1206;22397;-64
2021/09/03 02:15:34;;;;;;;2.80;1.30;;;;;;;8.31;74.39;99627.52;115538;1198;138179;-64
2021/09/03 02:18:03;;;;;;;2.90;1.40;;;;;;;8.32;74.50;99631.27;115840;1203;23070;-64
2021/09/03 02:20:31;;;;;;;2.30;1.10;;;;;;;8.34;74.31;99629.48;115627;1209;22530;-64
2021/09/03 02:22:59;;;;;;;5.50;1.10;;;;;;;8.38;74.24;99630.01;115595;1203;137634;-64
2021/09/03 02:25:27;;;;;;;6.60;1.20;;;;;;;8.38;74.25;99628.17;115650;1205;22379;-64
2021/09/03 02:27:55;;;;;;;8.10;1.50;;;;;;;8.39;74.14;99629.82;115640;1198;137638;-64
2021/09/03 02:30:23;;;;;;;4.20;1.30;;;;;;;8.39;74.19;99629.05;115707;1202;22339;-64
2021/09/03 02:32:51;;;;;;;6.80;1.30;;;;;;;8.38;74.07;99629.74;115630;1202;138746;-64
2021/09/03 02:35:19;;;;;;;2.50;1.30;;;;;;;8.38;74.07;99628.45;115753;1202;22371;-64
2021/09/03 02:37:47;;;;;;;2.50;1.40;;;;;;;8.40;74.16;99629.71;115680;1205;22398;-64
2021/09/03 02:40:15;;;;;;;3.40;1.40;;;;;;;8.41;74.13;99630.24;115665;1200;139737;-63
2021/09/03 02:42:43;;;;;;;5.10;1.20;;;;;;;8.42;74.06;99630.10;115744;1206;22190;-64
2021/09/03 02:45:14;;;;;;;4.40;1.80;;;;;;;8.43;74.08;99629.61;115474;1201;137749;-64
2021/09/03 02:47:43;;;;;;;4.60;1.60;;;;;;;8.43;73.98;99634.58;115787;1203;22308;-64
2021/09/03 02:50:11;;;;;;;7.60;1.60;;;;;;;8.44;73.81;99634.72;115677;1203;22344;-64
2021/09/03 02:52:40;;;;;;;2.30;1.30;;;;;;;8.45;73.80;99631.75;115601;1202;137506;-64
2021/09/03 02:55:08;;;;;;;3.40;1.60;;;;;;;8.45;73.84;99632.95;115659;1210;22827;-64
2021/09/03 02:57:37;;;;;;;2.40;1.20;;;;;;;8.45;73.88;99636.20;115648;1202;137531;-64
2021/09/03 03:00:06;;;;;;;4.50;1.40;;;;;;;8.46;73.83;99634.52;115777;1209;22336;-64
2021/09/03 03:02:34;;;;;;;3.50;1.60;;;;;;;8.46;73.72;99635.07;115787;1205;22361;-64
2021/09/03 03:05:03;;;;;;;2.10;1.30;;;;;;;8.44;73.65;99636.56;115628;1198;137888;-64
2021/09/03 03:07:31;;;;;;;5.20;1.80;;;;;;;8.42;73.65;99634.88;115673;1202;22284;-64
2021/09/03 03:09:59;;;;;;;5.50;1.70;;;;;;;8.40;73.79;99635.64;115615;1206;137544;-64
2021/09/03 03:12:27;;;;;;;8.20;1.30;;;;;;;8.38;74.00;99635.55;115759;1202;25074;-64
2021/09/03 03:14:55;;;;;;;2.60;1.30;;;;;;;8.37;74.03;99635.96;115510;1199;137912;-64
2021/09/03 03:17:23;;;;;;;2.50;1.40;;;;;;;8.36;74.00;99636.84;115637;1205;22247;-64
2021/09/03 03:19:58;;;;;;;3.30;1.70;;;;;;;8.35;73.98;99635.23;115757;1204;23003;-64
2021/09/03 03:22:26;;;;;;;4.70;1.40;;;;;;;8.34;74.02;99637.92;115537;1202;138502;-64
2021/09/03 03:24:55;;;;;;;5.70;1.40;;;;;;;8.32;73.93;99642.45;115702;1202;22351;-64
2021/09/03 03:27:23;;;;;;;2.40;1.50;;;;;;;8.31;74.25;99642.79;115650;1199;137719;-64
2021/09/03 03:29:51;;;;;;;5.70;1.50;;;;;;;8.31;74.26;99641.23;115762;1203;22294;-64
2021/09/03 03:32:19;;;;;;;3.00;1.60;;;;;;;8.31;74.20;99641.04;115738;1203;22376;-64
2021/09/03 03:34:49;;;;;;;4.80;1.60;;;;;;;8.31;74.42;99636.91;115639;1198;138449;-64
2021/09/03 03:37:17;;;;;;;2.30;1.30;;;;;;;8.30;74.52;99636.08;115728;1203;22237;-64
2021/09/03 03:39:45;;;;;;;6.90;1.70;;;;;;;8.30;74.45;99634.33;114366;1198;137859;-58
2021/09/03 03:42:13;;;;;;;4.30;1.50;;;;;;;8.30;74.43;99638.67;111447;1208;23731;-58
2021/09/03 03:44:41;;;;;;;4.80;2.00;;;;;;;8.30;74.30;99637.33;115540;1202;22374;-58
2021/09/03 03:47:10;;;;;;;5.70;1.90;;;;;;;8.31;74.63;99637.23;115586;1203;137619;-58
2021/09/03 03:49:38;;;;;;;2.70;1.60;;;;;;;8.33;74.70;99641.98;115610;1210;23345;-58
2021/09/03 03:52:18;;;;;;;4.70;1.50;;;;;;;8.36;74.56;99645.31;115631;1198;138625;-58
2021/09/03 03:54:46;;;;;;;6.20;1.70;;;;;;;8.38;74.61;99645.54;115763;1201;22848;-58
2021/09/03 03:57:14;;;;;;;3.20;1.80;;;;;;;8.41;74.60;99643.65;115612;1199;141521;-58
2021/09/03 03:59:43;;;;;;;4.50;2.10;;;;;;;8.44;74.51;99644.20;115769;1202;22316;-58
2021/09/03 04:02:11;;;;;;;6.40;1.70;;;;;;;8.47;74.60;99642.23;115641;1205;22215;-58
2021/09/03 04:04:39;;;;;;;4.20;1.70;;;;;;;8.51;74.57;99645.61;115604;1198;137875;-58
2021/09/03 04:07:08;;;;;;;4.30;1.80;;;;;;;8.55;74.64;99648.23;115770;1202;22358;-58
2021/09/03 04:09:36;;;;;;;4.00;1.70;;;;;;;8.61;74.53;99648.63;115572;1202;138816;-58
2021/09/03 04:12:04;;;;;;;6.50;1.90;;;;;;;8.67;74.30;99645.58;115659;1203;22318;-59
2021/09/03 04:14:32;;;;;;;5.30;1.60;;;;;;;8.75;74.53;99645.38;115713;1203;22944;-58
2021/09/03 04:17:01;;;;;;;4.10;1.60;;;;;;;8.84;74.22;99643.08;115492;1199;137533;-58
2021/09/03 04:19:29;;;;;;;6.60;1.60;;;;;;;8.93;73.96;99640.09;115757;1202;22341;-58
2021/09/03 04:21:56;;;;;;;6.40;2.70;;;;;;;9.01;73.94;99640.67;115624;1198;138531;-58
2021/09/03 04:24:25;;;;;;;1.80;1.60;;;;;;;9.12;73.63;99641.56;115723;1209;23069;-58
2021/09/03 04:26:53;;;;;;;2.00;1.50;;;;;;;9.27;73.48;99639.31;115518;1198;138917;-58
2021/09/03 04:29:21;;;;;;;3.50;1.90;;;;;;;9.48;73.08;99638.69;115741;1204;22294;-58
2021/09/03 04:31:49;;;;;;;1.90;1.20;;;;;;;9.70;72.57;99637.88;115729;1202;22236;-58
2021/09/03 04:34:18;;;;;;;5.60;1.80;;;;;;;9.90;71.98;99636.92;115582;1198;137406;-59
2021/09/03 04:36:48;;;;;;;8.30;1.80;;;;;;;10.08;71.43;99631.61;115689;1205;22304;-58
2021/09/03 04:39:16;;;;;;;5.60;2.00;;;;;;;10.27;70.94;99629.89;115277;1198;137213;-58
2021/09/03 04:41:45;;;;;;;5.70;2.00;;;;;;;10.50;70.18;99632.11;115614;1207;22321;-59
2021/09/03 04:44:13;;;;;;;4.30;2.10;;;;;;;10.66;69.62;99634.10;115744;1202;22302;-59
2021/09/03 04:46:41;;;;;;;11.30;2.30;;;;;;;10.82;68.93;99630.63;115546;1198;138491;-59
2021/09/03 04:49:09;;;;;;;5.10;2.20;;;;;;;10.96;68.39;99632.50;115499;1204;22222;-58
2021/09/03 04:51:38;;;;;;;3.90;2.10;;;;;;;11.09;68.21;99635.29;115563;1199;137166;-59
2021/09/03 04:54:07;;;;;;;4.60;2.10;;;;;;;11.26;67.65;99633.98;115734;1209;22317;-58
2021/09/03 04:56:35;;;;;;;5.20;2.10;;;;;;;11.43;67.07;99632.91;115721;1209;22336;-58
2021/09/03 04:59:03;;;;;;;5.80;1.90;;;;;;;11.56;66.53;99633.46;115572;1204;136774;-58
2021/09/03 05:01:31;;;;;;;4.10;1.50;;;;;;;11.70;66.00;99638.63;115782;1202;22307;-58
2021/09/03 05:04:00;;;;;;;6.00;1.90;;;;;;;11.81;65.48;99640.54;115614;1199;138139;-59
2021/09/03 05:06:27;;;;;;;7.40;2.00;;;;;;;11.95;65.25;99639.64;115687;1202;22320;-59
2021/09/03 05:08:57;;;;;;;7.10;2.40;;;;;;;12.15;64.86;99641.78;115614;1198;137516;-56
2021/09/03 05:11:25;;;;;;;4.00;2.20;;;;;;;12.32;64.46;99639.46;115682;1202;22221;-57
2021/09/03 05:13:53;;;;;;;5.80;2.40;;;;;;;12.47;63.85;99636.73;115700;1201;22354;-58
2021/09/03 05:16:21;;;;;;;7.90;1.80;;;;;;;12.56;63.33;99633.36;115530;1198;137821;-60
2021/09/03 05:18:54;;;;;;;3.70;1.90;;;;;;;12.61;63.10;99634.70;115624;1209;22306;-58
2021/09/03 05:21:26;;;;;;;5.10;1.50;;;;;;;12.65;62.87;99632.27;114471;1206;23410;-56
2021/09/03 05:23:55;;;;;;;6.20;1.80;;;;;;;12.77;62.44;99640.17;109348;1199;26492;-68
2021/09/03 05:29:15;;;;;;;3.70;1.40;;;;;;;12.99;61.75;99634.69;109776;1217;544922;-66
2021/09/03 05:31:43;;;;;;;5.80;2.40;;;;;;;13.03;61.77;99635.67;110950;1211;23477;-66
2021/09/03 05:34:11;;;;;;;3.90;1.90;;;;;;;13.06;61.44;99637.16;114947;1205;136810;-67
2021/09/03 05:36:40;;;;;;;11.40;2.20;;;;;;;13.06;61.34;99634.53;115272;1209;22495;-68
2021/09/03 05:39:08;;;;;;;6.20;2.20;;;;;;;12.99;61.45;99635.67;115275;1209;23541;-67
2021/09/03 05:41:36;;;;;;;5.90;2.80;;;;;;;12.91;61.51;99631.40;115115;1205;137593;-68
2021/09/03 05:44:04;;;;;;;8.00;2.40;;;;;;;12.83;61.44;99632.41;115279;1216;22365;-68
2021/09/03 05:46:32;;;;;;;9.50;2.20;;;;;;;12.74;61.58;99632.17;115229;1204;136406;-68
2021/09/03 05:49:01;;;;;;;3.80;1.70;;;;;;;12.65;62.03;99630.79;115270;1209;23121;-67
2021/09/03 05:51:29;;;;;;;3.00;1.70;;;;;;;12.60;62.03;99623.38;115213;1206;137205;-67
2021/09/03 05:53:57;;;;;;;5.60;1.60;;;;;;;12.56;62.10;99626.98;115279;1209;22303;-67
2021/09/03 05:56:25;;;;;;;7.20;1.60;;;;;;;12.49;61.94;99627.23;115322;1208;22398;-68
2021/09/03 05:58:54;;;;;;;6.10;1.90;;;;;;;12.44;62.21;99628.25;115174;1205;136980;-67
2021/09/03 06:01:23;;;;;;;7.50;1.80;;;;;;;12.41;62.74;99629.60;115328;1208;22317;-68
2021/09/03 06:03:55;;;;;;;4.60;1.30;;;;;;;12.40;63.04;99625.89;115205;1205;136739;-67
2021/09/03 06:06:24;;;;;;;8.20;1.90;;;;;;;12.41;63.12;99623.44;115271;1208;23147;-67
2021/09/03 06:08:52;;;;;;;15.20;2.70;;;;;;;12.45;63.52;99625.30;115282;1211;23229;-67
2021/09/03 06:11:24;;;;;;;3.50;1.70;;;;;;;12.51;63.33;99620.69;115097;1204;137534;-67
2021/09/03 06:13:53;;;;;;;8.30;1.70;;;;;;;12.56;63.23;99620.35;115336;1209;22330;-68
2021/09/03 06:16:21;;;;;;;4.80;1.40;;;;;;;12.62;63.05;99619.63;115165;1208;138200;-68
2021/09/03 06:18:49;;;;;;;3.20;1.80;;;;;;;12.65;62.79;99623.90;115303;1209;22358;-68
2021/09/03 06:21:18;;;;;;;5.70;2.00;;;;;;;12.67;63.31;99619.26;115212;1204;138312;-67
2021/09/03 06:23:46;;;;;;;2.70;1.40;;;;;;;12.73;62.64;99618.66;115315;1207;22284;-68
2021/09/03 06:26:15;;;;;;;7.90;1.90;;;;;;;12.78;62.44;99606.32;115280;1207;22224;-68
2021/09/03 06:28:43;;;;;;;6.50;1.90;;;;;;;12.84;62.45;99606.88;115276;1205;137700;-68
2021/09/03 06:31:11;;;;;;;4.20;1.60;;;;;;;12.90;62.49;99609.67;115326;1208;22182;-67
2021/09/03 06:33:40;;;;;;;6.10;2.00;;;;;;;12.97;62.08;99605.52;115218;1205;136869;-67
2021/09/03 06:36:08;;;;;;;3.90;1.70;;;;;;;13.05;61.87;99603.41;115368;1208;22368;-67
2021/09/03 06:38:36;;;;;;;3.50;1.60;;;;;;;13.14;62.01;99605.73;115309;1207;23031;-68
2021/09/03 06:41:04;;;;;;;6.70;1.70;;;;;;;13.23;61.97;99606.47;115234;1204;137117;-68
2021/09/03 06:43:32;;;;;;;7.30;1.70;;;;;;;13.32;61.94;99607.92;115371;1208;22150;-68
2021/09/03 06:46:00;;;;;;;3.80;1.10;;;;;;;13.41;61.64;99604.48;115169;1204;137189;-68
2021/09/03 06:48:28;;;;;;;3.30;1.40;;;;;;;13.51;61.47;99605.69;115322;1208;23327;-68
2021/09/03 06:50:56;;;;;;;10.60;1.20;;;;;;;13.59;61.07;99606.21;115326;1212;22318;-68
2021/09/03 06:53:24;;;;;;;8.70;1.70;;;;;;;13.65;60.61;99605.52;115184;1205;137637;-68
2021/09/03 06:55:53;;;;;;;3.10;1.30;;;;;;;13.69;60.23;99607.59;115167;1209;23718;-68
2021/09/03 06:58:21;;;;;;;3.40;1.30;;;;;;;13.72;60.49;99607.95;115148;1204;136960;-68
2021/09/03 07:00:49;;;;;;;4.50;1.60;;;;;;;13.77;60.18;99609.86;115330;1207;22327;-68
2021/09/03 07:03:18;;;;;;;7.20;1.40;;;;;;;13.81;60.10;99614.64;115222;1205;136799;-67
2021/09/03 07:05:46;;;;;;;10.50;1.70;;;;;;;13.85;60.33;99607.65;115373;1213;22353;-70
2021/09/03 07:08:15;;;;;;;7.60;1.90;;;;;;;13.92;60.64;99608.95;115297;1208;23375;-68
2021/09/03 07:10:43;;;;;;;7.40;2.40;;;;;;;14.00;60.53;99608.72;115241;1204;136794;-69
2021/09/03 07:13:12;;;;;;;4.90;1.50;;;;;;;14.07;60.30;99603.65;115304;1207;22335;-68
2021/09/03 07:15:40;;;;;;;7.30;1.60;;;;;;;14.15;60.35;99601.71;115274;1207;136838;-68
2021/09/03 07:18:08;;;;;;;2.40;1.20;;;;;;;14.22;59.99;99603.11;115355;1207;22599;-68
2021/09/03 07:20:36;;;;;;;2.40;0.90;;;;;;;14.27;59.32;99598.66;115364;1208;22319;-68
2021/09/03 07:23:04;;;;;;;5.20;1.10;;;;;;;14.31;59.32;99594.73;115200;1205;137590;-68
2021/09/03 07:25:32;;;;;;;3.00;0.70;;;;;;;14.36;59.41;99597.25;115316;1211;22712;-68
2021/09/03 07:28:00;;;;;;;2.70;0.60;;;;;;;14.41;58.55;99591.39;115206;1205;137080;-68
2021/09/03 07:30:28;;;;;;;4.60;0.90;;;;;;;14.46;58.42;99586.25;115355;1207;22373;-68
2021/09/03 07:32:57;;;;;;;8.80;1.40;;;;;;;14.52;58.08;99589.59;115326;1214;23455;-68
2021/09/03 07:35:25;;;;;;;4.40;0.90;;;;;;;14.58;57.26;99588.39;115162;1208;136586;-68
2021/09/03 07:37:53;;;;;;;1.40;1.00;;;;;;;14.62;57.05;99580.14;115275;1211;22349;-68
2021/09/03 07:40:21;;;;;;;2.70;0.90;;;;;;;14.68;56.94;99585.88;115162;1205;137817;-63
2021/09/03 07:42:58;;;;;;;5.10;0.90;;;;;;;14.73;56.80;99581.61;115259;1207;22330;-63
2021/09/03 07:45:27;;;;;;;2.40;0.80;;;;;;;14.79;56.82;99583.72;115192;1205;137135;-63
2021/09/03 07:47:55;;;;;;;1.70;0.70;;;;;;;14.87;56.61;99576.48;115266;1214;23355;-63
2021/09/03 07:50:23;;;;;;;4.00;1.10;;;;;;;14.95;56.57;99573.73;115348;1208;22374;-63
2021/09/03 07:52:51;;;;;;;3.60;0.80;;;;;;;15.02;55.44;99568.02;115189;1205;137694;-62
2021/09/03 07:55:38;;;;;;;1.20;0.80;;;;;;;15.06;55.60;99566.68;115294;1208;23040;-63
2021/09/03 07:58:06;;;;;;;6.40;1.00;;;;;;;15.11;55.64;99565.23;115189;1205;137550;-63
2021/09/03 08:00:35;;;;;;;3.20;0.90;;;;;;;15.17;55.44;99560.60;115275;1214;22582;-62
2021/09/03 08:03:03;;;;;;;3.30;1.10;;;;;;;15.22;55.13;99566.71;115315;1207;23083;-62
2021/09/03 08:05:32;;;;;;;2.50;1.10;;;;;;;15.24;54.71;99560.39;115249;1208;136495;-62
2021/09/03 08:08:01;;;;;;;0.90;0.70;;;;;;;15.24;54.95;99553.09;115323;1208;22318;-62
2021/09/03 08:10:49;;;;;;;3.20;1.00;;;;;;;15.24;55.35;99555.17;115147;1205;136765;-63
2021/09/03 08:13:17;;;;;;;0.90;0.70;;;;;;;15.25;55.65;99558.57;115311;1207;23155;-63
2021/09/03 08:15:48;;;;;;;4.30;1.10;;;;;;;15.27;55.47;99550.05;115178;1208;137292;-64
2021/09/03 08:18:36;;;;;;;3.00;0.80;;;;;;;15.29;55.01;99551.80;115340;1208;22340;-64
2021/09/03 08:21:23;;;;;;;2.10;0.90;;;;;;;15.27;54.87;99546.81;115199;1207;137075;-63
2021/09/03 08:23:50;;;;;;;2.30;1.00;;;;;;;15.26;55.21;99544.08;115347;1208;22314;-64
2021/09/03 08:26:18;;;;;;;3.40;0.80;;;;;;;15.30;55.17;99543.70;115368;1208;23122;-63
2021/09/03 08:28:46;;;;;;;9.40;2.20;;;;;;;15.34;55.24;99539.05;115160;1204;137065;-64
2021/09/03 08:31:17;;;;;;;6.80;1.60;;;;;;;15.40;55.73;99540.16;115262;1207;23464;-64
2021/09/03 08:33:45;;;;;;;4.40;1.00;;;;;;;15.49;55.24;99541.76;115229;1205;136921;-64
2021/09/03 08:36:13;;;;;;;2.00;1.00;;;;;;;15.59;54.89;99541.03;115280;1208;23081;-64
2021/09/03 08:38:42;;;;;;;3.90;0.80;;;;;;;15.67;53.90;99536.12;115252;1208;22427;-63
2021/09/03 08:41:10;;;;;;;3.80;1.90;;;;;;;15.70;53.51;99534.16;115123;1205;137425;-64
2021/09/03 08:43:38;;;;;;;4.50;1.70;;;;;;;15.72;52.93;99532.27;115313;1208;22316;-67
2021/09/03 08:46:07;;;;;;;3.30;1.00;;;;;;;15.70;53.34;99532.13;115239;1204;139756;-67
2021/09/03 08:48:35;;;;;;;1.90;0.80;;;;;;;15.72;53.85;99528.98;115282;1208;22137;-67
2021/09/03 08:51:03;;;;;;;1.90;0.90;;;;;;;15.75;54.00;99529.31;115283;1208;22288;-67
2021/09/03 08:53:33;;;;;;;1.50;0.80;;;;;;;15.80;53.50;99528.02;115228;1208;137049;-68
2021/09/03 08:56:03;;;;;;;2.80;1.00;;;;;;;15.82;53.16;99527.81;115243;1208;22326;-68
2021/09/03 08:58:31;;;;;;;5.10;1.40;;;;;;;15.86;53.23;99528.42;115185;1204;137200;-69
2021/09/03 09:01:18;;;;;;;2.50;1.00;;;;;;;15.89;53.06;99526.79;115301;1208;23560;-68
2021/09/03 09:03:49;;;;;;;2.60;0.90;;;;;;;15.96;52.71;99518.05;115144;1204;137989;-68
2021/09/03 09:06:20;;;;;;;3.20;0.90;;;;;;;15.99;52.35;99520.42;115216;1208;23039;-69
2021/09/03 09:09:03;;;;;;;1.00;0.90;;;;;;;16.01;52.67;99516.31;115324;1212;22306;-68
2021/09/03 09:11:36;;;;;;;5.60;1.60;;;;;;;16.07;53.31;99515.52;115145;1205;137489;-69
2021/09/03 09:14:08;;;;;;;3.80;0.90;;;;;;;16.17;52.83;99514.58;115453;1213;22423;-70
2021/09/03 09:17:02;;;;;;;5.40;1.00;;;;;;;16.24;52.47;99513.39;115152;1205;136728;-65
2021/09/03 09:19:48;;;;;;;3.80;0.90;;;;;;;16.25;52.74;99506.45;115368;1208;23017;-65
2021/09/03 09:22:16;;;;;;;0.80;0.70;;;;;;;16.26;53.17;99505.83;115262;1204;136779;-65
2021/09/03 09:24:45;;;;;;;2.80;1.10;;;;;;;16.30;53.14;99500.27;115340;1208;22330;-65
2021/09/03 09:27:23;;;;;;;2.30;0.70;;;;;;;16.35;52.55;99496.34;115277;1212;22866;-65
2021/09/03 09:29:51;;;;;;;2.30;1.10;;;;;;;16.42;52.44;99493.17;115294;1204;137011;-65
2021/09/03 09:32:20;;;;;;;3.10;1.00;;;;;;;16.48;52.58;99493.23;115313;1208;22231;-65
2021/09/03 09:34:48;;;;;;;2.70;0.90;;;;;;;16.55;51.51;99489.41;115152;1205;136863;-65
2021/09/03 09:37:17;;;;;;;5.80;1.20;;;;;;;16.59;51.84;99488.25;115344;1208;22340;-67
2021/09/03 09:39:56;;;;;;;1.40;0.80;;;;;;;16.62;51.50;99488.55;115328;1205;137711;-63
2021/09/03 09:42:27;;;;;;;11.20;1.30;;;;;;;16.63;51.58;99483.08;115394;1208;22295;-63
2021/09/03 09:45:09;;;;;;;2.70;1.40;;;;;;;16.62;51.98;99485.45;115262;1213;22335;-63
2021/09/03 09:47:38;;;;;;;4.30;1.20;;;;;;;16.64;51.70;99486.83;115256;1205;137895;-62
2021/09/03 09:50:27;;;;;;;4.40;1.40;;;;;;;16.64;51.73;99482.20;115372;1214;22310;-61
2021/09/03 09:53:08;;;;;;;5.60;2.10;;;;;;;16.65;51.77;99476.41;115161;1205;137097;-65
2021/09/03 09:55:37;;;;;;;2.50;1.60;;;;;;;16.69;51.97;99480.87;115273;1211;22247;-65
2021/09/03 09:58:06;;;;;;;3.90;1.20;;;;;;;16.72;51.66;99478.30;115173;1203;138294;-65
2021/09/03 10:00:35;;;;;;;2.10;1.00;;;;;;;16.70;51.57;99483.45;115267;1208;23075;-65
2021/09/03 10:03:05;;;;;;;5.70;1.30;;;;;;;16.65;51.36;99481.74;115309;1208;22364;-65
2021/09/03 10:05:34;;;;;;;5.30;1.60;;;;;;;16.59;51.36;99476.48;115160;1205;137986;-65
2021/09/03 10:08:03;;;;;;;4.80;1.50;;;;;;;16.53;51.31;99470.39;115150;1208;22334;-65
2021/09/03 10:10:31;;;;;;;4.10;1.80;;;;;;;16.47;51.22;99468.50;115231;1205;137422;-64
2021/09/03 10:12:59;;;;;;;3.90;1.00;;;;;;;16.37;51.24;99470.86;115366;1208;22243;-65
2021/09/03 10:15:28;;;;;;;4.50;1.20;;;;;;;16.30;51.05;99476.70;115137;1202;137586;-65
2021/09/03 10:18:16;;;;;;;7.30;1.30;;;;;;;16.25;51.19;99471.10;115343;1205;22352;-65
2021/09/03 10:21:01;;;;;;;6.60;1.30;;;;;;;16.25;51.63;99465.38;115452;1209;22924;-65
2021/09/03 10:24:06;;;;;;;3.80;1.10;;;;;;;16.30;51.77;99459.42;115285;1202;138009;-65
2021/09/03 10:26:39;;;;;;;4.70;1.80;;;;;;;16.37;51.50;99455.35;115386;1212;22321;-66
2021/09/03 10:29:32;;;;;;;2.30;1.20;;;;;;;16.40;51.73;99447.79;115309;1203;137511;-64
2021/09/03 10:32:06;;;;;;;3.10;1.50;;;;;;;16.45;51.81;99440.77;115469;1206;22390;-64
2021/09/03 10:34:38;;;;;;;2.40;1.60;;;;;;;16.51;51.34;99437.80;115296;1212;136964;-63
2021/09/03 10:37:15;;;;;;;3.60;1.50;;;;;;;16.57;50.35;99434.38;115410;1205;22818;-64
2021/09/03 10:39:57;;;;;;;9.60;1.30;;;;;;;16.61;51.22;99437.38;114255;1202;136959;-64
2021/09/03 10:42:55;;;;;;;6.30;1.50;;;;;;;16.68;51.50;99436.74;115422;1209;22314;-65
2021/09/03 10:45:32;;;;;;;8.10;1.80;;;;;;;16.76;51.00;99432.92;115388;1205;22423;-65
2021/09/03 10:48:03;;;;;;;5.10;1.90;;;;;;;16.81;50.81;99431.47;115232;1204;136771;-65
2021/09/03 10:50:34;;;;;;;7.00;2.10;;;;;;;16.87;50.27;99433.48;115444;1205;22331;-65
2021/09/03 10:53:05;;;;;;;4.80;2.00;;;;;;;16.91;49.48;99436.13;115248;1202;137332;-65
2021/09/03 10:55:59;;;;;;;4.30;1.70;;;;;;;16.95;49.97;99428.09;115426;1208;22824;-65
2021/09/03 10:58:36;;;;;;;10.70;1.60;;;;;;;17.03;50.23;99426.73;115267;1201;137178;-65
2021/09/03 11:01:16;;;;;;;3.60;1.70;;;;;;;17.10;49.96;99425.79;115397;1205;22888;-65
2021/09/03 11:03:51;;;;;;;4.20;1.70;;;;;;;17.16;49.40;99425.29;115331;1203;137139;-64
2021/09/03 11:06:26;;;;;;;7.80;1.80;;;;;;;17.20;49.57;99418.64;115441;1205;22276;-65
2021/09/03 11:09:01;;;;;;;9.60;1.90;;;;;;;17.27;49.91;99418.55;115523;1209;22383;-65
2021/09/03 11:11:31;;;;;;;4.80;2.30;;;;;;;17.35;49.84;99419.41;115307;1205;136942;-65
2021/09/03 11:14:08;;;;;;;3.20;1.80;;;;;;;17.43;49.71;99419.77;115484;1205;22300;-64
2021/09/03 11:16:56;;;;;;;3.10;1.70;;;;;;;17.48;49.27;99411.98;115347;1201;137123;-65
2021/09/03 11:19:46;;;;;;;5.70;1.80;;;;;;;17.53;48.88;99409.26;115436;1209;22834;-65
2021/09/03 11:22:22;;;;;;;5.00;1.60;;;;;;;17.52;49.10;99400.73;115412;1201;139338;-65
2021/09/03 11:24:53;;;;;;;3.90;1.70;;;;;;;17.52;49.46;99403.05;115401;1206;23076;-64
2021/09/03 11:27:22;;;;;;;4.60;1.70;;;;;;;17.50;49.53;99397.41;115465;1205;23100;-65
2021/09/03 11:29:57;;;;;;;5.70;1.90;;;;;;;17.48;49.10;99392.54;115353;1205;136878;-65
2021/09/03 11:32:26;;;;;;;6.10;1.90;;;;;;;17.48;49.21;99387.96;115424;1212;22214;-65
2021/09/03 11:34:55;;;;;;;6.20;2.20;;;;;;;17.51;49.63;99391.55;115341;1204;137014;-65
2021/09/03 11:37:23;;;;;;;6.60;1.90;;;;;;;17.55;49.36;99386.08;115541;1209;22264;-65
2021/09/03 11:39:53;;;;;;;7.00;1.90;;;;;;;17.58;49.10;99382.59;115357;1201;137697;-69
2021/09/03 11:42:26;;;;;;;3.70;2.00;;;;;;;17.63;48.56;99380.23;115542;1205;22256;-68